OISY  Yasouj Airport

Add Bookmark

Iran

Status
Operational
Latitude Longitude
30° 42' 1" N 51° 32' 42" E
30.700500 51.545101
Local (DST + 5) UTC (GMT + 4)
Jan 31, 2015 01:01 Jan 30, 2015 21:31
Sunrise-Sunset Local UTC
Begin Civil Twilight 06:29 02:59
Sunrise 06:54 03:24
Sunset 05:39 14:09
End Civil Twilight 06:05 14:35

Current Weather

METAR Observed VFR
OISY 302100Z 17004KT 9999 SCT040 OVC080 11/M01 Q1024 Fri, Jan 30, 2015 @ 21:00 UTC
(31 Minutes ago)
Visual Flight Rules
Wind Visibility Clouds Conditions
170° at 4 knots (7 kph) 10 km or more
  • Scattered at 4,000' AGL
  • Overcast at 8,000' AGL
  • No significant weather
Temperatures Readings Precipitation
Current Temp 11°C (52°F)
Dewpoint -1°C (30°F)
Humidity 44%
Altimeter 30.24"Hg
Sea Level Pressure 1024mb
Field Elevation 5941.6'
None Recorded

24 Hour Weather History

Loading
-

24 Hour Weather Graphs

Loading
-

CheckWX.com is intended as a tool to help pilots better visualize weather data. It is not intended as a substitute for an official weather briefing obtained from a Flight Service Station. CheckWX.com does not meet the FAA requirements for an official pre-flight weather briefing. Therefore, it's important that pilots still call and obtain an official FSS pre-flight weather briefing.